Time;durP1;ratioP1;P1;durP2;ratioP2;P2;SDS_P1;SDS_P2;PMS_P1;PMS_P2;Temp;Humidity;BMP_temperature;BMP_pressure;BME280_temperature;BME280_humidity;BME280_pressure;Samples;Min_cycle;Max_cycle;Signal;HPM_P1;HPM_P2
2023/08/19 00:01:45;;;;;;;0.00;0.00;;;;;;;30.23;58.54;101335.16;5048852;28;20024;-66
2023/08/19 00:04:10;;;;;;;0.00;0.00;;;;;;;30.03;58.64;101339.66;5048381;28;20095;-67
2023/08/19 00:06:41;;;;;;;0.00;0.00;;;;;;;30.13;58.59;101336.41;5048523;28;20046;-67
2023/08/19 00:09:08;;;;;;;0.00;0.00;;;;;;;30.06;58.91;101338.13;5048103;28;20073;-66
2023/08/19 00:11:38;;;;;;;0.00;0.00;;;;;;;30.17;58.28;101336.53;5047969;28;20029;-67
2023/08/19 00:14:05;;;;;;;0.00;0.00;;;;;;;30.04;58.78;101335.72;5048295;28;20033;-67
2023/08/19 00:16:31;;;;;;;0.00;0.00;;;;;;;30.01;58.77;101332.81;5066763;28;20119;-67
2023/08/19 00:18:56;;;;;;;0.00;0.00;;;;;;;30.10;58.47;101327.97;5068345;28;20032;-68
2023/08/19 00:21:22;;;;;;;0.00;0.00;;;;;;;29.91;59.34;101327.72;5068465;28;20033;-67
2023/08/19 00:23:47;;;;;;;0.00;0.00;;;;;;;29.99;58.83;101329.56;5059196;28;20365;-67
2023/08/19 00:26:13;;;;;;;0.00;0.00;;;;;;;30.05;58.41;101329.00;5062422;28;20150;-67
2023/08/19 00:28:39;;;;;;;0.00;0.00;;;;;;;30.10;58.67;101312.16;5048969;28;20423;-67
2023/08/19 00:31:05;;;;;;;0.00;0.00;;;;;;;30.13;58.66;101308.69;5048165;28;20037;-67
2023/08/19 00:33:30;;;;;;;0.00;0.00;;;;;;;30.03;59.44;101306.38;5047986;28;20037;-67
2023/08/19 00:35:56;;;;;;;0.00;0.00;;;;;;;30.33;58.30;101311.75;5048107;28;20408;-66
2023/08/19 00:38:21;;;;;;;0.00;0.00;;;;;;;30.31;58.46;101303.75;5048049;28;20029;-67
2023/08/19 00:40:46;;;;;;;0.00;0.00;;;;;;;30.25;58.77;101305.91;5051507;28;20021;-67
2023/08/19 00:43:12;;;;;;;0.00;0.00;;;;;;;30.47;58.15;101309.44;5051416;28;20128;-66
2023/08/19 00:45:44;;;;;;;0.00;0.00;;;;;;;30.52;58.14;101309.19;5051645;28;20403;-67
2023/08/19 00:48:11;;;;;;;0.00;0.00;;;;;;;30.38;58.41;101311.50;5031718;28;20457;-66
2023/08/19 00:50:37;;;;;;;0.00;0.00;;;;;;;30.41;58.22;101306.06;5032079;28;20026;-67
2023/08/19 00:53:03;;;;;;;0.00;0.00;;;;;;;30.13;58.83;101314.22;5031699;28;20031;-65
2023/08/19 00:55:28;;;;;;;0.00;0.00;;;;;;;30.27;58.65;101311.94;5032133;28;20021;-67
2023/08/19 00:57:54;;;;;;;0.00;0.00;;;;;;;30.30;58.42;101316.00;5031542;28;20037;-67
2023/08/19 01:00:19;;;;;;;0.00;0.00;;;;;;;30.29;58.40;101309.66;5031618;28;20034;-67
2023/08/19 01:02:45;;;;;;;0.00;0.00;;;;;;;30.37;58.18;101313.47;5032010;28;20041;-67
2023/08/19 01:05:11;;;;;;;0.00;0.00;;;;;;;30.36;58.14;101314.63;5051214;28;20052;-66
2023/08/19 01:07:55;;;;;;;0.00;0.00;;;;;;;30.42;58.56;101306.88;5052107;28;20037;-67
2023/08/19 01:10:43;;;;;;;0.00;0.00;;;;;;;30.41;58.01;101308.84;5050917;28;20057;-66
2023/08/19 01:13:14;;;;;;;0.00;0.00;;;;;;;30.30;58.60;101311.28;5031322;28;20041;-67
2023/08/19 01:15:55;;;;;;;0.00;0.00;;;;;;;30.53;57.49;101308.84;5031152;28;20037;-67
2023/08/19 01:18:23;;;;;;;0.00;0.00;;;;;;;30.17;59.15;101311.59;5031193;28;20053;-67
2023/08/19 01:20:50;;;;;;;0.00;0.00;;;;;;;30.23;58.59;101304.66;5046550;28;20021;-67
2023/08/19 01:23:37;;;;;;;0.00;0.00;;;;;;;30.53;58.12;101303.28;5051117;28;20108;-67
2023/08/19 01:26:03;;;;;;;0.00;0.00;;;;;;;30.48;57.88;101302.72;5050743;28;20025;-67
2023/08/19 01:28:28;;;;;;;0.00;0.00;;;;;;;30.32;58.31;101308.16;5051248;28;20119;-67
2023/08/19 01:30:53;;;;;;;0.00;0.00;;;;;;;30.34;58.64;101303.06;5032909;28;20041;-68
2023/08/19 01:33:19;;;;;;;0.00;0.00;;;;;;;30.38;58.18;101303.19;5050775;28;20037;-67
2023/08/19 01:35:58;;;;;;;0.00;0.00;;;;;;;30.62;57.83;101303.19;5050616;28;20037;-68
2023/08/19 01:38:36;;;;;;;0.00;0.00;;;;;;;30.59;57.34;101299.13;5050568;28;20043;-66
2023/08/19 01:41:03;;;;;;;0.00;0.00;;;;;;;30.53;58.06;101294.97;5050479;28;20037;-67
2023/08/19 01:43:30;;;;;;;0.00;0.00;;;;;;;30.55;57.92;101294.59;5050868;28;20485;-67
2023/08/19 01:45:56;;;;;;;0.00;0.00;;;;;;;30.58;57.88;101297.53;5050246;28;20040;-66
2023/08/19 01:48:22;;;;;;;0.00;0.00;;;;;;;30.47;58.55;101290.03;5050622;28;20037;-66
2023/08/19 01:50:47;;;;;;;0.00;0.00;;;;;;;30.73;57.87;101287.66;5049329;28;20033;-67
2023/08/19 01:53:13;;;;;;;0.00;0.00;;;;;;;30.57;58.04;101279.25;5050583;28;20032;-66
2023/08/19 01:55:38;;;;;;;0.00;0.00;;;;;;;30.42;58.60;101279.13;5050919;28;20044;-67
2023/08/19 01:58:03;;;;;;;0.00;0.00;;;;;;;30.50;58.45;101275.44;5050276;28;20091;-67
2023/08/19 02:00:29;;;;;;;0.00;0.00;;;;;;;30.64;58.12;101279.47;5031706;28;20041;-67
2023/08/19 02:02:54;;;;;;;0.00;0.00;;;;;;;30.68;57.96;101269.28;5049952;28;20029;-66
2023/08/19 02:05:20;;;;;;;0.00;0.00;;;;;;;30.81;57.62;101272.84;5050161;28;20037;-67
2023/08/19 02:07:45;;;;;;;0.00;0.00;;;;;;;30.80;57.41;101272.03;5058315;28;20052;-68
2023/08/19 02:10:13;;;;;;;0.00;0.00;;;;;;;30.70;57.57;101271.72;5069661;28;20055;-68
2023/08/19 02:12:39;;;;;;;0.00;0.00;;;;;;;30.45;58.13;101270.13;5069922;28;20028;-67
2023/08/19 02:15:05;;;;;;;0.00;0.00;;;;;;;30.39;58.67;101265.97;5069892;28;20102;-67
2023/08/19 02:17:30;;;;;;;0.00;0.00;;;;;;;30.36;58.35;101263.88;5050225;28;20067;-66
2023/08/19 02:19:55;;;;;;;0.00;0.00;;;;;;;30.45;58.47;101262.59;5049943;28;20043;-67
2023/08/19 02:22:21;;;;;;;0.00;0.00;;;;;;;30.61;57.58;101257.16;5050694;28;20029;-67
2023/08/19 02:24:47;;;;;;;0.00;0.00;;;;;;;30.58;57.25;101255.91;5049884;28;20076;-67
2023/08/19 02:27:13;;;;;;;0.00;0.00;;;;;;;30.68;57.01;101254.59;5049516;28;20102;-67
2023/08/19 02:29:38;;;;;;;0.00;0.00;;;;;;;30.53;57.64;101253.34;5049846;28;20029;-67
2023/08/19 02:32:04;;;;;;;0.00;0.00;;;;;;;30.66;57.53;101252.19;5049658;28;20056;-67
2023/08/19 02:34:29;;;;;;;0.00;0.00;;;;;;;30.67;57.16;101244.66;5049981;28;20041;-67
2023/08/19 02:36:55;;;;;;;0.00;0.00;;;;;;;30.63;57.64;101249.28;5049674;28;20405;-68
2023/08/19 02:39:20;;;;;;;0.00;0.00;;;;;;;30.70;57.05;101246.75;5049487;28;20041;-67
2023/08/19 02:41:46;;;;;;;0.00;0.00;;;;;;;30.69;57.27;101240.38;5049221;28;20021;-67
2023/08/19 02:44:11;;;;;;;0.00;0.00;;;;;;;30.62;57.22;101247.69;5049276;28;20492;-66
2023/08/19 02:46:36;;;;;;;0.00;0.00;;;;;;;30.58;57.77;101247.56;5049938;28;20021;-66
2023/08/19 02:49:02;;;;;;;0.00;0.00;;;;;;;30.60;57.69;101252.78;5049126;28;20037;-67
2023/08/19 02:51:27;;;;;;;0.00;0.00;;;;;;;30.64;57.92;101242.59;5049373;28;20029;-67
2023/08/19 02:53:53;;;;;;;0.00;0.00;;;;;;;30.60;57.64;101244.44;5049609;28;20063;-67
2023/08/19 02:56:18;;;;;;;0.00;0.00;;;;;;;30.45;57.95;101242.41;5049116;28;20112;-68
2023/08/19 02:58:43;;;;;;;0.00;0.00;;;;;;;30.61;57.21;101233.00;5049673;28;20514;-67
2023/08/19 03:01:12;;;;;;;0.00;0.00;;;;;;;30.62;57.54;101229.06;5049339;28;20025;-67
2023/08/19 03:03:37;;;;;;;0.00;0.00;;;;;;;30.59;57.91;101226.16;5035523;28;20036;-68
2023/08/19 03:06:03;;;;;;;0.00;0.00;;;;;;;30.60;57.50;101234.16;5069198;28;20048;-68
2023/08/19 03:08:28;;;;;;;0.00;0.00;;;;;;;30.71;57.31;101224.19;5069132;28;20479;-67
2023/08/19 03:10:54;;;;;;;0.00;0.00;;;;;;;30.86;56.89;101231.78;5069176;28;20021;-66
2023/08/19 03:13:19;;;;;;;0.00;0.00;;;;;;;30.85;56.95;101229.38;5053571;28;20035;-67
2023/08/19 03:15:45;;;;;;;0.00;0.00;;;;;;;30.70;57.79;101238.41;5049113;28;20041;-66
2023/08/19 03:18:11;;;;;;;0.00;0.00;;;;;;;30.77;57.02;101238.63;5048952;28;20276;-67
2023/08/19 03:20:37;;;;;;;0.00;0.00;;;;;;;30.68;57.78;101230.44;5048815;28;20032;-67
2023/08/19 03:23:02;;;;;;;0.00;0.00;;;;;;;30.79;57.65;101227.97;5049054;28;20033;-67
2023/08/19 03:25:28;;;;;;;0.00;0.00;;;;;;;30.83;57.12;101224.19;5049439;28;20048;-68
2023/08/19 03:27:53;;;;;;;0.00;0.00;;;;;;;30.76;57.50;101226.69;5048797;28;20539;-67
2023/08/19 03:30:19;;;;;;;0.00;0.00;;;;;;;30.80;57.55;101233.16;5048824;28;20033;-66
2023/08/19 03:32:44;;;;;;;0.00;0.00;;;;;;;30.83;57.30;101226.97;5048711;28;20025;-67
2023/08/19 03:35:09;;;;;;;0.00;0.00;;;;;;;31.01;56.58;101225.50;5049079;28;20373;-67
2023/08/19 03:37:35;;;;;;;0.00;0.00;;;;;;;30.88;57.16;101225.91;5048914;28;20122;-67
2023/08/19 03:40:00;;;;;;;0.00;0.00;;;;;;;30.84;57.39;101216.66;5048686;28;20032;-67
2023/08/19 03:42:26;;;;;;;0.00;0.00;;;;;;;30.88;57.25;101212.81;5030584;28;20390;-68
2023/08/19 03:44:51;;;;;;;0.00;0.00;;;;;;;30.94;56.62;101221.69;5048295;28;20029;-68
2023/08/19 03:47:16;;;;;;;0.00;0.00;;;;;;;30.94;57.01;101221.69;5048648;28;20112;-68
2023/08/19 03:49:42;;;;;;;0.00;0.00;;;;;;;30.87;56.96;101222.31;5049087;28;20151;-66
2023/08/19 03:52:08;;;;;;;0.00;0.00;;;;;;;30.92;56.76;101222.06;5048698;28;20125;-67
2023/08/19 03:54:35;;;;;;;0.00;0.00;;;;;;;30.84;57.39;101228.56;5048987;28;20041;-67
2023/08/19 03:57:01;;;;;;;0.00;0.00;;;;;;;30.88;56.76;101231.47;5048094;28;20033;-67
2023/08/19 03:59:27;;;;;;;0.00;0.00;;;;;;;30.93;56.48;101232.00;5049612;28;20131;-67
2023/08/19 04:01:52;;;;;;;0.00;0.00;;;;;;;30.93;57.03;101234.78;5055608;28;20060;-68
2023/08/19 04:04:18;;;;;;;0.00;0.00;;;;;;;30.87;56.95;101229.81;5048237;28;20068;-68
2023/08/19 04:06:44;;;;;;;0.00;0.00;;;;;;;30.96;56.78;101225.75;5043777;28;20382;-67
2023/08/19 04:09:09;;;;;;;0.00;0.00;;;;;;;30.86;56.80;101231.78;5033537;28;20056;-67
2023/08/19 04:11:37;;;;;;;0.00;0.00;;;;;;;30.90;57.04;101231.91;5041741;28;20030;-67
2023/08/19 04:14:02;;;;;;;0.00;0.00;;;;;;;30.95;56.70;101228.88;5039764;28;20079;-67
2023/08/19 04:16:27;;;;;;;0.00;0.00;;;;;;;31.03;56.73;101223.19;5051732;28;20048;-68
2023/08/19 04:18:53;;;;;;;0.00;0.00;;;;;;;30.74;57.11;101220.69;5052123;28;20235;-66
2023/08/19 04:21:18;;;;;;;0.00;0.00;;;;;;;30.59;57.63;101212.28;5051977;28;20079;-66
2023/08/19 04:23:44;;;;;;;0.00;0.00;;;;;;;30.56;58.05;101215.78;5052213;28;20385;-67
2023/08/19 04:26:09;;;;;;;0.00;0.00;;;;;;;30.86;56.94;101220.69;5051840;28;20093;-67
2023/08/19 04:28:35;;;;;;;0.00;0.00;;;;;;;30.70;57.26;101222.53;5052291;28;20021;-67
2023/08/19 04:31:04;;;;;;;0.00;0.00;;;;;;;30.79;57.58;101230.75;5051842;28;20568;-67
2023/08/19 04:33:31;;;;;;;0.00;0.00;;;;;;;30.78;57.40;101221.59;5051975;28;20563;-67
2023/08/19 04:35:56;;;;;;;0.00;0.00;;;;;;;30.78;57.33;101229.16;5052000;28;20361;-66
2023/08/19 04:38:22;;;;;;;0.00;0.00;;;;;;;30.79;57.28;101226.00;5051399;28;20036;-67
2023/08/19 04:40:47;;;;;;;0.00;0.00;;;;;;;30.92;56.76;101229.56;5052263;28;20029;-67
2023/08/19 04:43:12;;;;;;;0.00;0.00;;;;;;;31.06;56.30;101229.97;5066608;28;20040;-67
2023/08/19 04:45:38;;;;;;;0.00;0.00;;;;;;;31.09;56.03;101232.06;5051514;28;20063;-67
2023/08/19 04:48:07;;;;;;;0.00;0.00;;;;;;;31.17;55.59;101239.44;5051552;28;20392;-67
2023/08/19 04:50:32;;;;;;;0.00;0.00;;;;;;;31.14;55.60;101238.16;5051505;28;20033;-67
2023/08/19 04:52:58;;;;;;;0.00;0.00;;;;;;;31.16;55.60;101232.25;5051420;28;20345;-67
2023/08/19 04:55:23;;;;;;;0.00;0.00;;;;;;;31.12;55.70;101228.56;5051867;28;20029;-67
2023/08/19 04:57:48;;;;;;;0.00;0.00;;;;;;;31.17;55.52;101228.34;5069556;28;20039;-67
2023/08/19 05:00:14;;;;;;;0.00;0.00;;;;;;;31.42;54.81;101229.84;5071380;28;20037;-66
2023/08/19 05:02:40;;;;;;;0.00;0.00;;;;;;;31.29;54.97;101231.06;5071377;28;20077;-66
2023/08/19 05:05:05;;;;;;;0.00;0.00;;;;;;;31.26;55.31;101231.75;5040901;28;20021;-68
2023/08/19 05:07:31;;;;;;;0.00;0.00;;;;;;;31.34;55.22;101233.56;5051577;28;20481;-67
2023/08/19 05:09:56;;;;;;;0.00;0.00;;;;;;;31.29;54.94;101235.78;5050861;28;20051;-67
2023/08/19 05:12:23;;;;;;;0.00;0.00;;;;;;;31.31;54.98;101228.72;5050960;28;20075;-68
2023/08/19 05:14:49;;;;;;;0.00;0.00;;;;;;;31.34;55.10;101228.00;5051134;28;20036;-67
2023/08/19 05:17:14;;;;;;;0.00;0.00;;;;;;;31.38;54.78;101228.94;5050907;28;20083;-67
2023/08/19 05:19:40;;;;;;;0.00;0.00;;;;;;;31.29;54.86;101230.25;5051278;28;20021;-67
2023/08/19 05:22:05;;;;;;;0.00;0.00;;;;;;;31.41;55.12;101222.66;5051130;28;20398;-67
2023/08/19 05:24:30;;;;;;;0.00;0.00;;;;;;;31.33;55.15;101223.59;5032650;28;20317;-67
2023/08/19 05:26:56;;;;;;;0.00;0.00;;;;;;;31.31;54.81;101236.25;5050374;28;20033;-67
2023/08/19 05:29:21;;;;;;;0.00;0.00;;;;;;;31.26;55.03;101237.31;5050807;28;20040;-67
2023/08/19 05:31:46;;;;;;;0.00;0.00;;;;;;;31.35;54.72;101237.94;5051055;28;20033;-67
2023/08/19 05:34:12;;;;;;;0.00;0.00;;;;;;;31.46;54.50;101243.81;5032667;28;20049;-67
2023/08/19 05:36:37;;;;;;;0.00;0.00;;;;;;;31.39;55.20;101238.09;5050715;28;20566;-66
2023/08/19 05:39:03;;;;;;;0.00;0.00;;;;;;;31.46;54.29;101230.75;5050715;28;20049;-66
2023/08/19 05:41:28;;;;;;;0.00;0.00;;;;;;;31.49;54.80;101232.03;5050424;28;20037;-68
2023/08/19 05:43:54;;;;;;;0.00;0.00;;;;;;;31.61;54.34;101229.13;5065524;28;20029;-66
2023/08/19 05:46:19;;;;;;;0.00;0.00;;;;;;;31.59;54.05;101237.84;5050965;28;20021;-66
2023/08/19 05:48:45;;;;;;;0.00;0.00;;;;;;;31.62;53.69;101237.13;5050468;28;20071;-67
2023/08/19 05:51:10;;;;;;;0.00;0.00;;;;;;;31.70;53.45;101252.03;5050229;28;20037;-67
2023/08/19 05:53:35;;;;;;;0.00;0.00;;;;;;;31.59;53.79;101264.81;5064875;28;20056;-66
2023/08/19 05:56:01;;;;;;;0.00;0.00;;;;;;;31.50;53.93;101266.97;5063402;28;20571;-67
2023/08/19 05:58:27;;;;;;;0.00;0.00;;;;;;;31.60;53.87;101263.66;5050593;28;20036;-67
2023/08/19 06:00:59;;;;;;;0.00;0.00;;;;;;;31.75;53.86;101260.09;5050355;28;20032;-68
2023/08/19 06:03:25;;;;;;;0.00;0.00;;;;;;;31.59;53.88;101253.69;5050229;28;20041;-67
2023/08/19 06:05:50;;;;;;;0.00;0.00;;;;;;;31.67;53.58;101252.72;5050274;28;20048;-67
2023/08/19 06:08:16;;;;;;;0.00;0.00;;;;;;;31.77;53.27;101246.63;5049733;28;20021;-67
2023/08/19 06:10:44;;;;;;;0.00;0.00;;;;;;;31.64;53.34;101240.38;5050344;28;20029;-66
2023/08/19 06:13:10;;;;;;;0.00;0.00;;;;;;;31.83;52.86;101240.47;5050092;28;20044;-66
2023/08/19 06:15:36;;;;;;;0.00;0.00;;;;;;;31.35;54.57;101240.72;5049926;28;20079;-68
2023/08/19 06:18:01;;;;;;;0.00;0.00;;;;;;;31.55;53.80;101241.69;5049906;28;20508;-67
2023/08/19 06:20:27;;;;;;;0.00;0.00;;;;;;;31.80;53.04;101245.94;5049630;28;20029;-67
2023/08/19 06:22:52;;;;;;;0.00;0.00;;;;;;;31.89;52.75;101255.72;5050371;28;20033;-67
2023/08/19 06:25:17;;;;;;;0.00;0.00;;;;;;;31.81;53.13;101262.25;5049734;28;20040;-68
2023/08/19 06:27:43;;;;;;;0.00;0.00;;;;;;;31.73;53.15;101263.22;5049422;28;20050;-67
2023/08/19 06:30:09;;;;;;;0.00;0.00;;;;;;;31.80;53.56;101259.84;5049572;28;20037;-67
2023/08/19 06:32:34;;;;;;;0.00;0.00;;;;;;;31.86;53.15;101258.41;5049798;28;20033;-67
2023/08/19 06:35:02;;;;;;;0.00;0.00;;;;;;;31.77;53.33;101255.78;5049515;28;20040;-67
2023/08/19 06:37:30;;;;;;;0.00;0.00;;;;;;;31.74;53.73;101256.53;5049666;28;20419;-68
2023/08/19 06:39:58;;;;;;;0.00;0.00;;;;;;;32.04;52.64;101253.31;5049494;28;20033;-66
2023/08/19 06:42:24;;;;;;;0.00;0.00;;;;;;;31.93;53.12;101250.25;5049131;28;20052;-67
2023/08/19 06:44:53;;;;;;;0.00;0.00;;;;;;;32.11;52.66;101253.50;5049038;28;20043;-66
2023/08/19 06:47:22;;;;;;;0.00;0.00;;;;;;;31.94;52.59;101249.13;5049454;28;20096;-66
2023/08/19 06:49:48;;;;;;;0.00;0.00;;;;;;;31.76;53.21;101247.81;5063932;28;20024;-67
2023/08/19 06:52:13;;;;;;;0.00;0.00;;;;;;;32.04;53.08;101251.31;5064270;28;20047;-68
2023/08/19 06:54:39;;;;;;;0.00;0.00;;;;;;;32.18;52.25;101256.47;5048687;28;20029;-68
2023/08/19 06:57:14;;;;;;;0.00;0.00;;;;;;;32.17;52.50;101254.84;5048617;28;20060;-66
2023/08/19 06:59:40;;;;;;;0.00;0.00;;;;;;;32.16;52.53;101265.16;5048807;28;20131;-66
2023/08/19 07:02:07;;;;;;;0.00;0.00;;;;;;;32.23;52.71;101259.78;5048577;28;20426;-66
2023/08/19 07:04:35;;;;;;;0.00;0.00;;;;;;;32.28;52.75;101253.91;5049291;28;20380;-67
2023/08/19 07:07:05;;;;;;;0.00;0.00;;;;;;;32.26;52.40;101253.47;5048644;28;20450;-67
2023/08/19 07:09:31;;;;;;;;;;;;;;;32.56;52.09;101253.81;5046406;28;20045;-67
2023/08/19 07:11:57;;;;;;;0.00;0.00;;;;;;;32.42;51.89;101253.44;5030346;28;19916;-66
2023/08/19 07:14:24;;;;;;;0.00;0.00;;;;;;;32.33;52.17;101258.41;5048177;28;20037;-66
2023/08/19 07:16:51;;;;;;;0.00;0.00;;;;;;;32.60;51.65;101261.06;5049039;28;20021;-66
2023/08/19 07:19:25;;;;;;;0.00;0.00;;;;;;;32.69;52.11;101263.63;5048114;28;20033;-68
2023/08/19 07:21:51;;;;;;;0.00;0.00;;;;;;;32.66;51.57;101259.63;5046291;28;20116;-66
2023/08/19 07:24:17;;;;;;;0.00;0.00;;;;;;;32.93;51.22;101276.47;5047474;28;20405;-67
2023/08/19 07:26:43;;;;;;;0.00;0.00;;;;;;;32.69;51.15;101270.00;5046638;28;20044;-67
2023/08/19 07:29:09;;;;;;;0.00;0.00;;;;;;;32.95;50.95;101260.22;5047696;28;20439;-67
2023/08/19 07:31:34;;;;;;;0.00;0.00;;;;;;;32.88;50.95;101268.44;5048309;28;20016;-67
2023/08/19 07:34:00;;;;;;;0.00;0.00;;;;;;;33.33;49.50;101274.19;5047620;28;20071;-67
2023/08/19 07:36:26;;;;;;;0.00;0.00;;;;;;;33.27;49.76;101272.88;5047454;28;20033;-67
2023/08/19 07:38:52;;;;;;;0.00;0.00;;;;;;;33.23;49.38;101264.44;5047525;28;20039;-67
2023/08/19 07:41:20;;;;;;;0.00;0.00;;;;;;;33.06;50.08;101270.44;5047776;28;20821;-67
2023/08/19 07:43:47;;;;;;;0.00;0.00;;;;;;;33.33;49.26;101271.38;5047625;28;20040;-67
2023/08/19 07:46:17;;;;;;;0.00;0.00;;;;;;;33.63;48.47;101275.19;5047853;28;20052;-67
2023/08/19 07:48:45;;;;;;;0.00;0.00;;;;;;;33.41;49.00;101276.75;5049182;28;20488;-67
2023/08/19 07:51:11;;;;;;;0.00;0.00;;;;;;;33.47;48.98;101282.81;5049344;28;20393;-67
2023/08/19 07:53:36;;;;;;;0.00;0.00;;;;;;;33.24;49.37;101282.75;5051499;28;20029;-66
2023/08/19 07:56:02;;;;;;;0.00;0.00;;;;;;;33.30;49.50;101280.47;5051416;28;21956;-67
2023/08/19 07:58:27;;;;;;;0.00;0.00;;;;;;;33.27;49.13;101281.22;5051626;28;20025;-66
2023/08/19 08:00:53;;;;;;;0.00;0.00;;;;;;;33.36;49.24;101287.34;5051361;28;20029;-66
2023/08/19 08:03:18;;;;;;;0.00;0.00;;;;;;;33.49;48.96;101286.84;5051548;28;20033;-66
2023/08/19 08:05:44;;;;;;;0.00;0.00;;;;;;;33.60;48.90;101295.44;5051631;28;20404;-66
2023/08/19 08:08:09;;;;;;;0.00;0.00;;;;;;;33.60;49.02;101295.44;5051287;28;20378;-67
2023/08/19 08:10:35;;;;;;;0.00;0.00;;;;;;;33.66;48.84;101289.19;5051545;28;20141;-66
2023/08/19 08:13:00;;;;;;;0.00;0.00;;;;;;;33.82;48.47;101282.69;5050671;28;20500;-66
2023/08/19 08:15:26;;;;;;;0.00;0.00;;;;;;;33.85;48.47;101284.75;5050568;28;20032;-68
2023/08/19 08:17:51;;;;;;;0.00;0.00;;;;;;;34.04;48.27;101281.94;5051121;28;20389;-67
2023/08/19 08:20:17;;;;;;;0.00;0.00;;;;;;;34.18;47.77;101282.16;5051114;28;20033;-67
2023/08/19 08:22:42;;;;;;;0.00;0.00;;;;;;;34.36;47.67;101274.84;5051616;28;20029;-67
2023/08/19 08:25:09;;;;;;;0.00;0.00;;;;;;;34.13;48.08;101277.69;5032599;28;20048;-67
2023/08/19 08:27:35;;;;;;;0.00;0.00;;;;;;;34.49;47.20;101273.50;5051344;28;20044;-66
2023/08/19 08:30:00;;;;;;;0.00;0.00;;;;;;;34.62;46.64;101277.69;5051657;28;20120;-68
2023/08/19 08:32:26;;;;;;;0.00;0.00;;;;;;;34.33;47.05;101275.63;5033026;28;20037;-67
2023/08/19 08:34:51;;;;;;;0.00;0.00;;;;;;;34.38;46.78;101278.06;5052272;28;20044;-67
2023/08/19 08:37:17;;;;;;;0.00;0.00;;;;;;;34.56;46.44;101286.75;5051673;28;20036;-68
2023/08/19 08:39:42;;;;;;;0.00;0.00;;;;;;;34.39;46.75;101296.44;5033709;28;20052;-67
2023/08/19 08:42:08;;;;;;;0.00;0.00;;;;;;;34.25;46.91;101304.59;5064636;28;20641;-66
2023/08/19 08:44:37;;;;;;;0.00;0.00;;;;;;;34.27;47.38;101305.84;5059015;28;20091;-67
2023/08/19 08:47:03;;;;;;;0.00;0.00;;;;;;;34.42;46.79;101307.66;5051082;28;20515;-65
2023/08/19 08:49:29;;;;;;;0.00;0.00;;;;;;;34.61;46.17;101298.44;5058289;28;20045;-67
2023/08/19 08:51:56;;;;;;;0.00;0.00;;;;;;;34.75;45.70;101315.41;5050272;28;20043;-65
2023/08/19 08:54:22;;;;;;;0.00;0.00;;;;;;;34.80;45.98;101317.03;5047966;28;20470;-66
2023/08/19 08:56:48;;;;;;;0.00;0.00;;;;;;;34.78;46.48;101316.59;5050536;28;20029;-67
2023/08/19 08:59:13;;;;;;;0.00;0.00;;;;;;;34.96;45.78;101329.69;5050534;28;20045;-66
2023/08/19 09:01:40;;;;;;;0.00;0.00;;;;;;;34.98;46.21;101332.91;5050033;28;20474;-67
2023/08/19 09:04:08;;;;;;;0.00;0.00;;;;;;;34.73;46.80;101348.47;5050052;28;20083;-67
2023/08/19 09:06:37;;;;;;;0.00;0.00;;;;;;;34.92;46.43;101339.16;5050094;28;20109;-68
2023/08/19 09:09:08;;;;;;;0.00;0.00;;;;;;;35.09;45.79;101336.63;5050814;28;20250;-66
2023/08/19 09:11:38;;;;;;;0.00;0.00;;;;;;;35.34;45.37;101332.16;5050335;28;20893;-68
2023/08/19 09:14:12;;;;;;;0.00;0.00;;;;;;;35.68;44.94;101326.56;5047418;28;20056;-67
2023/08/19 09:16:38;;;;;;;0.00;0.00;;;;;;;35.35;45.85;101327.38;5050499;28;20021;-66
2023/08/19 09:19:03;;;;;;;0.00;0.00;;;;;;;35.10;45.75;101329.06;5049856;28;20346;-66
2023/08/19 09:21:29;;;;;;;0.00;0.00;;;;;;;35.44;45.47;101339.06;5049657;28;20042;-67
2023/08/19 09:23:57;;;;;;;0.00;0.00;;;;;;;35.65;44.87;101335.75;5048997;28;20096;-66
2023/08/19 09:26:24;;;;;;;0.00;0.00;;;;;;;35.63;44.34;101350.13;5049626;28;20029;-67
2023/08/19 09:28:49;;;;;;;0.00;0.00;;;;;;;35.12;45.58;101349.88;5049859;28;20127;-68
2023/08/19 09:31:20;;;;;;;0.00;0.00;;;;;;;35.43;44.95;101351.44;5049579;28;20127;-67
2023/08/19 09:33:47;;;;;;;0.00;0.00;;;;;;;35.32;45.05;101345.72;5047505;28;20036;-68
2023/08/19 09:36:13;;;;;;;0.00;0.00;;;;;;;35.17;45.33;101340.31;5048998;28;20119;-67
2023/08/19 09:38:38;;;;;;;0.00;0.00;;;;;;;35.26;45.45;101338.06;5049577;28;20047;-67
2023/08/19 09:41:08;;;;;;;0.00;0.00;;;;;;;35.17;45.86;101343.13;5051873;28;20056;-67
2023/08/19 09:43:38;;;;;;;0.00;0.00;;;;;;;35.48;45.60;101336.38;5049789;28;20468;-67
2023/08/19 09:46:04;;;;;;;0.00;0.00;;;;;;;35.17;46.22;101345.91;5044686;28;20497;-68
2023/08/19 09:48:29;;;;;;;0.00;0.00;;;;;;;35.39;45.87;101347.81;5045088;28;20255;-67
2023/08/19 09:50:55;;;;;;;0.00;0.00;;;;;;;35.36;46.51;101356.97;5038628;28;20106;-67
2023/08/19 09:53:21;;;;;;;0.00;0.00;;;;;;;35.23;46.78;101378.75;5044313;28;20040;-67
2023/08/19 09:55:50;;;;;;;0.00;0.00;;;;;;;35.29;47.20;101360.47;5044510;28;20028;-67
2023/08/19 09:58:16;;;;;;;0.00;0.00;;;;;;;35.32;47.19;101368.06;5043338;28;20643;-67
2023/08/19 10:00:42;;;;;;;0.00;0.00;;;;;;;35.06;48.13;101365.34;5042359;28;20112;-67
2023/08/19 10:03:07;;;;;;;0.00;0.00;;;;;;;35.15;47.93;101367.84;5045521;28;20091;-68
2023/08/19 10:05:39;;;;;;;0.00;0.00;;;;;;;35.24;48.62;101362.78;5044848;28;20033;-67
2023/08/19 10:08:08;;;;;;;0.00;0.00;;;;;;;35.02;49.49;101381.25;5026859;28;20328;-67
2023/08/19 10:10:37;;;;;;;0.00;0.00;;;;;;;35.22;49.01;101401.50;5044938;28;20060;-69
2023/08/19 10:13:03;;;;;;;0.00;0.00;;;;;;;35.13;49.47;101393.38;5041405;28;20083;-66
2023/08/19 10:15:32;;;;;;;0.00;0.00;;;;;;;35.41;49.25;101403.34;5044927;28;20033;-68
2023/08/19 10:18:00;;;;;;;0.00;0.00;;;;;;;35.25;50.48;101401.53;5043253;28;20033;-67
2023/08/19 10:20:28;;;;;;;0.00;0.00;;;;;;;35.60;49.53;101417.22;5044505;28;20839;-69
2023/08/19 10:22:58;;;;;;;0.00;0.00;;;;;;;35.02;49.89;101420.38;5043354;28;20029;-67
2023/08/19 10:25:24;;;;;;;;;;;;;;;35.93;48.60;101420.81;5046296;28;20028;-67
2023/08/19 10:27:50;;;;;;;0.00;0.00;;;;;;;35.41;48.19;101420.91;5042276;28;20368;-65
2023/08/19 10:30:25;;;;;;;0.00;0.00;;;;;;;35.71;47.79;101421.75;5043837;28;20033;-67
2023/08/19 10:32:51;;;;;;;0.00;0.00;;;;;;;35.76;47.55;101417.78;5044564;28;20075;-67
2023/08/19 10:35:17;;;;;;;0.00;0.00;;;;;;;35.89;47.86;101421.94;5058825;28;20221;-65
2023/08/19 10:37:48;;;;;;;0.00;0.00;;;;;;;35.74;48.14;101426.56;5058783;28;20411;-66
2023/08/19 10:40:19;;;;;;;0.00;0.00;;;;;;;35.92;47.75;101430.41;5023848;28;20051;-67
2023/08/19 10:42:56;;;;;;;0.00;0.00;;;;;;;36.10;47.06;101427.81;5045217;28;20063;-66
2023/08/19 10:45:22;;;;;;;0.00;0.00;;;;;;;36.22;46.89;101437.91;5044555;28;20068;-66
2023/08/19 10:47:51;;;;;;;0.00;0.00;;;;;;;36.54;46.36;101431.44;5044071;28;20025;-67
2023/08/19 10:50:17;;;;;;;0.00;0.00;;;;;;;36.43;46.74;101435.34;5030403;28;20060;-68
2023/08/19 10:53:03;;;;;;;0.00;0.00;;;;;;;36.67;46.75;101438.38;5045344;28;20064;-68
2023/08/19 10:55:52;;;;;;;0.00;0.00;;;;;;;36.28;46.97;101440.00;5045490;28;20064;-67
2023/08/19 10:58:18;;;;;;;0.00;0.00;;;;;;;36.09;47.74;101451.38;5029741;28;20048;-67
2023/08/19 11:00:44;;;;;;;0.00;0.00;;;;;;;36.01;47.75;101449.72;5044268;28;20045;-66
2023/08/19 11:03:11;;;;;;;0.00;0.00;;;;;;;35.64;48.47;101451.59;5043891;28;20109;-67
2023/08/19 11:05:36;;;;;;;0.00;0.00;;;;;;;36.09;47.23;101459.78;5044533;28;20043;-67
2023/08/19 11:08:06;;;;;;;0.00;0.00;;;;;;;36.83;45.35;101458.53;5044135;28;20025;-67
2023/08/19 11:10:32;;;;;;;0.00;0.00;;;;;;;36.25;47.06;101465.94;5044266;28;20508;-67
2023/08/19 11:12:59;;;;;;;0.00;0.00;;;;;;;36.12;47.76;101473.00;5044147;28;20029;-67
2023/08/19 11:15:25;;;;;;;0.00;0.00;;;;;;;36.04;48.39;101472.13;5042323;28;20858;-66
2023/08/19 11:17:50;;;;;;;0.00;0.00;;;;;;;34.98;50.80;101475.41;5044282;28;20449;-67
2023/08/19 11:20:16;;;;;;;0.00;0.00;;;;;;;36.07;48.21;101473.34;5044640;28;20040;-67
2023/08/19 11:22:43;;;;;;;0.00;0.00;;;;;;;36.53;46.71;101462.66;5041465;28;20103;-66
2023/08/19 11:25:08;;;;;;;0.00;0.00;;;;;;;35.17;50.40;101469.69;5038582;28;20041;-65